CYQI

Yarmouth Airport

Yarmouth, , Canada
TAF CYQI 210539Z 2106/2118 VRB03KT 1/4SM FG VV001 FM211100 02005KT 3/4SM BR OVC003 TEMPO 2111/2113 3SM BR OVC005 FM211300 36010KT 6SM BR BKN012 TEMPO 2113/2115 4SM BR BKN007 FM211500 33010KT P6SM BKN030 RMK NXT FCST BY 211200Z
Issued Valid From Valid To
Jul-21 @ 05:39 UTC
(4 hours ago)
Jul-21 @ 06:00 UTC
(4 hours ago)
Jul-21 @ 18:00 UTC
(in 8 hours)
Jul-21 @ 06:00 to Jul-21 @ 11:00
TAF CYQI 210539Z 2106/2118 VRB03KT 1/4SM FG VV001
Wind Visibility Clouds Conditions
Variable at 3 knots 1/4 miles
  • Vertical visibility at 100' AGL
  • Fog
From Jul-21 @ 11:00 to Jul-21 @ 13:00
FM211100 02005KT 3/4SM BR OVC003
Wind Visibility Clouds Conditions
20° at 5 knots 3/4 miles
  • Overcast at 300' AGL
  • Mist
Temporary Jul-21 @ 11:00 to Jul-21 @ 13:00
TEMPO 2111/2113 3SM BR OVC005
Visibility Clouds Conditions
3 miles
  • Overcast at 500' AGL
  • Mist
From Jul-21 @ 13:00 to Jul-21 @ 15:00
FM211300 36010KT 6SM BR BKN012
Wind Visibility Clouds Conditions
360° at 10 knots 6 miles
  • Broken at 1,200' AGL
  • Mist
Temporary Jul-21 @ 13:00 to Jul-21 @ 15:00
TEMPO 2113/2115 4SM BR BKN007
Visibility Clouds Conditions
4 miles
  • Broken at 700' AGL
  • Mist
From Jul-21 @ 15:00 to Jul-21 @ 18:00
FM211500 33010KT P6SM BKN030 RMK NXT FCST BY 211200Z
Wind Visibility Clouds
330° at 10 knots Greater than 6 miles
  • Broken at 3,000' AGL
TAF CYQI 210539Z 2106/2118 VRB03KT 1/4SM FG VV001 FM211100 02005KT 3/4SM BR OVC003 TEMPO 2111/2113 3SM BR OVC005 FM211300 36010KT 6SM BR BKN012 TEMPO 2113/2115 4SM BR BKN007 FM211500 33010KT P6SM BKN030 RMK NXT FCST BY 211200Z
Issued Jul-21 @ 05:39 UTC
(4 hours ago)
Valid From Jul-21 @ 06:00 UTC
(4 hours ago)
Valid To Jul-21 @ 18:00 UTC
(in 8 hours)
Jul-21 @ 06:00 - Jul-21 @ 11:00
Wind Visibility
Variable at 3 knots 1/4 miles
Clouds
  • Vertical visibility at 100' AGL
Conditions
  • Fog
From Jul-21 @ 11:00 - Jul-21 @ 13:00
Wind Visibility
20° at 5 knots 3/4 miles
Clouds
  • Overcast at 300' AGL
Conditions
  • Mist
Temporary Jul-21 @ 11:00 - Jul-21 @ 13:00
Clouds
  • Overcast at 500' AGL
Conditions
  • Mist
From Jul-21 @ 13:00 - Jul-21 @ 15:00
Wind Visibility
360° at 10 knots 6 miles
Clouds
  • Broken at 1,200' AGL
Conditions
  • Mist
Temporary Jul-21 @ 13:00 - Jul-21 @ 15:00
Clouds
  • Broken at 700' AGL
Conditions
  • Mist
From Jul-21 @ 15:00 - Jul-21 @ 18:00
Wind Visibility
330° at 10 knots Greater than 6 miles
Clouds
  • Broken at 3,000' AGL